createdAt,value
2018-02-10T00:02:19.172Z,91.50
2018-02-10T00:04:46.655Z,91.60
2018-02-10T00:07:15.858Z,91.60
2018-02-10T00:09:43.284Z,91.70
2018-02-10T00:12:10.734Z,91.70
2018-02-10T00:14:39.051Z,91.80
2018-02-10T00:17:06.498Z,91.80
2018-02-10T00:19:33.928Z,91.80
2018-02-10T00:22:01.416Z,91.80
2018-02-10T00:24:28.853Z,91.80
2018-02-10T00:26:56.346Z,91.80
2018-02-10T00:29:23.888Z,91.80
2018-02-10T00:31:51.324Z,91.80
2018-02-10T00:34:18.763Z,91.90
2018-02-10T00:36:46.982Z,91.90
2018-02-10T00:39:14.424Z,91.90
2018-02-10T00:41:41.860Z,91.90
2018-02-10T00:44:09.305Z,91.90
2018-02-10T00:46:37.620Z,92.00
2018-02-10T00:49:05.088Z,92.00
2018-02-10T00:51:32.544Z,92.00
2018-02-10T00:54:00.032Z,92.00
2018-02-10T00:56:27.464Z,92.00
2018-02-10T00:58:54.966Z,92.00
2018-02-10T01:01:23.192Z,92.10
2018-02-10T01:03:50.623Z,92.10
2018-02-10T01:06:18.096Z,92.10
2018-02-10T01:08:45.559Z,92.10
2018-02-10T01:11:13.004Z,92.10
2018-02-10T01:13:40.476Z,92.20
2018-02-10T01:16:07.928Z,92.20
2018-02-10T01:18:35.396Z,92.20
2018-02-10T01:21:02.851Z,92.20
2018-02-10T01:23:30.304Z,92.20
2018-02-10T01:25:57.746Z,92.20
2018-02-10T01:28:25.188Z,92.20
2018-02-10T01:30:52.616Z,92.20
2018-02-10T01:33:20.175Z,92.30
2018-02-10T01:35:48.417Z,92.70
2018-02-10T01:38:15.856Z,92.30
2018-02-10T01:40:43.323Z,92.30
2018-02-10T01:43:10.777Z,92.30
2018-02-10T01:45:38.239Z,92.30
2018-02-10T01:48:05.689Z,92.30
2018-02-10T01:50:33.145Z,92.30
2018-02-10T01:53:00.607Z,92.40
2018-02-10T01:55:28.046Z,92.40
2018-02-10T01:57:55.528Z,92.40
2018-02-10T02:00:22.984Z,92.50
2018-02-10T02:02:50.435Z,92.40
2018-02-10T02:05:17.888Z,92.40
2018-02-10T02:07:45.337Z,92.40
2018-02-10T02:10:12.755Z,92.50
2018-02-10T02:12:41.096Z,92.60
2018-02-10T02:15:08.533Z,92.50
2018-02-10T02:17:36.005Z,92.50
2018-02-10T02:20:04.182Z,92.50
2018-02-10T02:22:31.612Z,92.50
2018-02-10T02:24:59.044Z,92.50
2018-02-10T02:27:26.541Z,92.50
2018-02-10T02:29:53.955Z,92.60
2018-02-10T02:32:22.189Z,92.60
2018-02-10T02:34:49.631Z,92.60
2018-02-10T02:37:17.111Z,92.60
2018-02-10T02:39:44.543Z,92.60
2018-02-10T02:42:11.994Z,92.60
2018-02-10T02:44:39.430Z,92.60
2018-02-10T02:47:07.624Z,92.60
2018-02-10T02:49:35.072Z,92.60
2018-02-10T02:52:02.552Z,92.70
2018-02-10T02:54:29.987Z,92.70
2018-02-10T02:56:57.467Z,92.70
2018-02-10T02:59:24.901Z,92.70
2018-02-10T03:01:52.371Z,92.70
2018-02-10T03:04:19.883Z,92.70
2018-02-10T03:06:48.112Z,92.70
2018-02-10T03:09:15.544Z,92.70
2018-02-10T03:11:43.028Z,92.70
2018-02-10T03:14:10.484Z,92.70
2018-02-10T03:16:37.912Z,92.70
2018-02-10T03:19:05.395Z,92.70
2018-02-10T03:21:32.852Z,92.70
2018-02-10T03:24:00.292Z,92.70
2018-02-10T03:26:27.776Z,92.70
2018-02-10T03:28:55.226Z,92.70
2018-02-10T03:31:22.686Z,92.70
2018-02-10T03:33:50.248Z,92.80
2018-02-10T03:36:17.723Z,92.80
2018-02-10T03:38:45.255Z,92.80
2018-02-10T03:41:12.701Z,92.80
2018-02-10T03:43:40.128Z,92.80
2018-02-10T03:46:08.343Z,92.80
2018-02-10T03:48:35.903Z,92.80
2018-02-10T03:51:03.342Z,92.80
2018-02-10T03:53:30.777Z,92.80
2018-02-10T03:55:59.100Z,92.80
2018-02-10T03:58:26.560Z,93.10
2018-02-10T04:00:54.012Z,92.80
2018-02-10T04:03:21.459Z,92.90
2018-02-10T04:05:48.892Z,92.90
2018-02-10T04:08:16.373Z,92.90
2018-02-10T04:10:43.806Z,92.90
2018-02-10T04:13:12.036Z,92.90
2018-02-10T04:15:39.456Z,92.90
2018-02-10T04:18:06.932Z,92.90
2018-02-10T04:20:34.367Z,92.90
2018-02-10T04:23:01.797Z,92.90
2018-02-10T04:25:30.012Z,92.90
2018-02-10T04:27:57.447Z,92.90
2018-02-10T04:30:24.880Z,92.90
2018-02-10T04:32:53.129Z,93.00
2018-02-10T04:35:20.564Z,93.00
2018-02-10T04:37:48.019Z,93.00
2018-02-10T04:40:15.468Z,93.00
2018-02-10T04:42:42.932Z,93.00
2018-02-10T04:45:10.363Z,93.00
2018-02-10T04:47:37.844Z,93.00
2018-02-10T04:50:05.287Z,93.00
2018-02-10T04:52:32.715Z,93.00
2018-02-10T04:55:01.039Z,93.10
2018-02-10T04:57:28.476Z,93.10
2018-02-10T04:59:55.918Z,93.10
2018-02-10T05:02:24.228Z,93.10
2018-02-10T05:04:51.659Z,93.10
2018-02-10T05:07:19.100Z,93.10
2018-02-10T05:09:47.432Z,93.20
2018-02-10T05:12:14.872Z,93.10
2018-02-10T05:14:42.336Z,93.20
2018-02-10T05:17:09.784Z,93.20
2018-02-10T05:19:37.224Z,93.20
2018-02-10T05:22:04.715Z,93.20
2018-02-10T05:24:32.361Z,93.20
2018-02-10T05:26:59.838Z,93.20
2018-02-10T05:29:27.255Z,93.20
2018-02-10T05:31:54.700Z,93.20
2018-02-10T05:34:22.908Z,93.30
2018-02-10T05:36:50.356Z,93.20
2018-02-10T05:39:17.928Z,93.20
2018-02-10T05:41:45.381Z,93.20
2018-02-10T05:44:12.812Z,93.30
2018-02-10T05:46:40.252Z,93.30
2018-02-10T05:49:08.457Z,93.30
2018-02-10T05:51:35.892Z,93.30
2018-02-10T05:54:04.207Z,93.30
2018-02-10T05:56:31.649Z,93.30
2018-02-10T05:58:59.127Z,93.30
2018-02-10T06:01:26.568Z,93.30
2018-02-10T06:03:54.046Z,93.30
2018-02-10T06:06:21.492Z,93.30
2018-02-10T06:08:48.949Z,93.30
2018-02-10T06:11:16.388Z,93.30
2018-02-10T06:13:43.867Z,93.30
2018-02-10T06:16:11.352Z,93.30
2018-02-10T06:18:38.791Z,93.30
2018-02-10T06:21:06.252Z,93.30
2018-02-10T06:23:33.697Z,93.40
2018-02-10T06:26:01.158Z,93.30
2018-02-10T06:28:28.601Z,93.40
2018-02-10T06:30:56.068Z,93.40
2018-02-10T06:33:23.540Z,93.40
2018-02-10T06:35:51.091Z,93.40
2018-02-10T06:38:18.540Z,93.40
2018-02-10T06:40:45.972Z,93.40
2018-02-10T06:43:13.412Z,93.40
2018-02-10T06:45:41.620Z,93.40
2018-02-10T06:48:09.108Z,93.40
2018-02-10T06:50:36.644Z,93.40
2018-02-10T06:53:04.099Z,93.40
2018-02-10T06:55:31.554Z,93.40
2018-02-10T06:57:58.975Z,93.40
2018-02-10T07:00:27.333Z,93.40
2018-02-10T07:02:54.836Z,93.40
2018-02-10T07:05:22.256Z,93.40
2018-02-10T07:07:50.472Z,93.30
2018-02-10T07:10:17.949Z,93.30
2018-02-10T07:12:45.375Z,93.30
2018-02-10T07:15:12.856Z,93.30
2018-02-10T07:17:40.312Z,93.30
2018-02-10T07:20:07.773Z,93.40
2018-02-10T07:22:35.229Z,93.70
2018-02-10T07:25:02.661Z,93.40
2018-02-10T07:27:30.097Z,93.30
2018-02-10T07:29:58.309Z,93.40
2018-02-10T07:32:26.600Z,93.30
2018-02-10T07:34:54.028Z,93.30
2018-02-10T07:37:21.471Z,93.30
2018-02-10T07:39:48.974Z,93.40
2018-02-10T07:42:16.483Z,93.40
2018-02-10T07:44:43.910Z,93.40
2018-02-10T07:47:11.346Z,93.70
2018-02-10T07:49:38.804Z,93.40
2018-02-10T07:52:06.250Z,93.40
2018-02-10T07:54:33.686Z,93.40
2018-02-10T07:57:01.118Z,93.40
2018-02-10T07:59:29.459Z,93.50
2018-02-10T08:01:57.061Z,93.40
2018-02-10T08:04:25.262Z,93.40
2018-02-10T08:06:52.708Z,93.40
2018-02-10T08:09:20.140Z,93.40
2018-02-10T08:11:48.352Z,93.50
2018-02-10T08:14:15.839Z,93.40
2018-02-10T08:16:43.288Z,93.50
2018-02-10T08:19:10.726Z,93.50
2018-02-10T08:21:38.196Z,93.50
2018-02-10T08:24:05.652Z,93.40
2018-02-10T08:26:33.203Z,93.40
2018-02-10T08:29:00.628Z,93.40
2018-02-10T08:31:28.836Z,93.50
2018-02-10T08:33:56.296Z,93.40
2018-02-10T08:36:23.772Z,93.40
2018-02-10T08:38:51.205Z,93.40
2018-02-10T08:41:18.672Z,93.40
2018-02-10T08:43:46.128Z,93.40
2018-02-10T08:46:13.557Z,93.40
2018-02-10T08:48:41.044Z,93.40
2018-02-10T08:51:08.505Z,93.30
2018-02-10T08:53:35.935Z,93.30
2018-02-10T08:56:03.369Z,93.30
2018-02-10T08:58:31.631Z,93.30
2018-02-10T09:00:59.244Z,93.30
2018-02-10T09:03:26.717Z,93.30
2018-02-10T09:05:54.324Z,93.20
2018-02-10T09:08:21.836Z,93.20
2018-02-10T09:10:49.295Z,93.20
2018-02-10T09:13:16.760Z,93.20
2018-02-10T09:15:44.300Z,93.20
2018-02-10T09:18:11.757Z,93.10
2018-02-10T09:20:39.218Z,93.10
2018-02-10T09:23:06.664Z,93.10
2018-02-10T09:25:34.076Z,93.00
2018-02-10T09:28:02.397Z,93.00
2018-02-10T09:30:29.873Z,93.00
2018-02-10T09:32:57.300Z,93.00
2018-02-10T09:35:32.048Z,92.90
2018-02-10T09:37:59.580Z,92.90
2018-02-10T09:40:27.016Z,92.90
2018-02-10T09:42:55.237Z,92.80
2018-02-10T09:45:22.677Z,92.80
2018-02-10T09:47:50.152Z,92.80
2018-02-10T09:50:17.601Z,92.80
2018-02-10T09:52:45.044Z,92.80
2018-02-10T09:55:12.472Z,92.80
2018-02-10T09:57:40.689Z,92.80
2018-02-10T10:00:08.131Z,92.80
2018-02-10T10:02:35.615Z,92.80
2018-02-10T10:05:03.200Z,92.80
2018-02-10T10:07:30.732Z,92.70
2018-02-10T10:09:58.170Z,92.70
2018-02-10T10:12:25.616Z,92.70
2018-02-10T10:14:53.105Z,92.70
2018-02-10T10:17:20.536Z,92.70
2018-02-10T10:19:47.984Z,92.70
2018-02-10T10:22:15.447Z,92.70
2018-02-10T10:24:42.877Z,92.70
2018-02-10T10:27:11.097Z,92.80
2018-02-10T10:29:38.528Z,92.80
2018-02-10T10:32:06.752Z,92.80
2018-02-10T10:34:34.274Z,92.80
2018-02-10T10:37:02.468Z,92.80
2018-02-10T10:39:29.900Z,92.80
2018-02-10T10:41:57.384Z,92.80
2018-02-10T10:47:04.280Z,92.90
2018-02-10T10:49:31.763Z,92.90
2018-02-10T10:51:59.297Z,92.90
2018-02-10T10:54:26.753Z,93.20
2018-02-10T10:56:54.188Z,92.90
2018-02-10T10:59:21.616Z,92.90
2018-02-10T11:01:49.844Z,92.90
2018-02-10T11:04:17.323Z,92.90
2018-02-10T11:06:44.736Z,92.90
2018-02-10T11:09:12.180Z,92.90
2018-02-10T11:11:39.608Z,92.80
2018-02-10T11:14:07.048Z,92.90
2018-02-10T11:16:34.608Z,92.90
2018-02-10T11:19:02.048Z,92.90
2018-02-10T11:21:29.491Z,92.80
2018-02-10T11:23:56.962Z,92.80
2018-02-10T11:26:24.406Z,92.80
2018-02-10T11:28:51.873Z,92.80
2018-02-10T11:31:19.317Z,92.80
2018-02-10T11:33:46.788Z,92.70
2018-02-10T11:36:14.261Z,92.80
2018-02-10T11:38:41.695Z,92.70
2018-02-10T11:41:09.157Z,92.70
2018-02-10T11:43:36.624Z,92.70
2018-02-10T11:46:04.171Z,92.70
2018-02-10T11:48:31.629Z,92.90
2018-02-10T11:50:59.143Z,92.90
2018-02-10T11:53:26.568Z,92.90
2018-02-10T11:55:54.241Z,93.00
2018-02-10T11:58:21.672Z,93.00
2018-02-10T12:00:49.152Z,92.90
2018-02-10T12:03:16.632Z,93.00
2018-02-10T12:05:44.836Z,93.00
2018-02-10T12:08:12.288Z,92.90
2018-02-10T12:10:39.712Z,92.80
2018-02-10T12:13:07.919Z,93.10
2018-02-10T12:15:35.360Z,92.80
2018-02-10T12:18:03.552Z,92.80
2018-02-10T12:20:30.996Z,92.80
2018-02-10T12:22:58.496Z,92.80
2018-02-10T12:25:25.942Z,92.80
2018-02-10T12:27:53.376Z,92.80
2018-02-10T12:30:20.844Z,92.90
2018-02-10T12:32:48.272Z,92.90
2018-02-10T12:35:16.481Z,93.00
2018-02-10T12:37:43.960Z,92.90
2018-02-10T12:40:11.384Z,92.90
2018-02-10T12:42:38.808Z,92.90
2018-02-10T12:45:07.040Z,92.80
2018-02-10T12:47:40.838Z,92.70
2018-02-10T12:50:09.050Z,92.80
2018-02-10T12:52:36.529Z,92.70
2018-02-10T12:55:03.966Z,92.70
2018-02-10T12:57:31.437Z,92.70
2018-02-10T12:59:58.892Z,92.40
2018-02-10T13:02:26.334Z,92.10
2018-02-10T13:04:53.804Z,91.80
2018-02-10T13:07:21.266Z,91.40
2018-02-10T13:09:48.720Z,91.20
2018-02-10T13:12:16.164Z,91.00
2018-02-10T13:14:43.616Z,90.60
2018-02-10T13:17:11.801Z,88.90
2018-02-10T13:19:39.236Z,88.80
2018-02-10T13:22:07.448Z,85.60
2018-02-10T13:24:34.912Z,85.50
2018-02-10T13:27:02.460Z,84.70
2018-02-10T13:29:29.904Z,84.30
2018-02-10T13:31:57.380Z,83.80
2018-02-10T13:34:24.821Z,82.30
2018-02-10T13:36:52.285Z,80.90
2018-02-10T13:39:19.757Z,79.70
2018-02-10T13:41:47.229Z,79.30
2018-02-10T13:44:14.679Z,79.20
2018-02-10T13:46:42.105Z,78.80
2018-02-10T13:49:09.572Z,78.40
2018-02-10T13:51:36.996Z,77.90
2018-02-10T13:54:04.581Z,77.40
2018-02-10T13:56:32.040Z,76.70
2018-02-10T13:58:59.456Z,76.70
2018-02-10T14:01:27.662Z,76.30
2018-02-10T14:03:55.096Z,76.30
2018-02-10T14:06:23.280Z,74.90
2018-02-10T14:08:50.763Z,74.90
2018-02-10T14:11:18.208Z,74.40
2018-02-10T14:13:45.632Z,74.00
2018-02-10T14:16:13.886Z,74.30
2018-02-10T14:18:41.287Z,74.40
2018-02-10T14:21:08.708Z,73.50
2018-02-10T14:23:37.636Z,71.80
2018-02-10T14:26:05.072Z,71.80
2018-02-10T14:28:33.300Z,71.60
2018-02-10T14:31:00.720Z,71.60
2018-02-10T14:33:28.215Z,70.90
2018-02-10T14:35:55.660Z,70.70
2018-02-10T14:38:23.116Z,70.80
2018-02-10T14:40:50.551Z,71.10
2018-02-10T14:43:17.984Z,70.90
2018-02-10T14:45:46.175Z,70.80
2018-02-10T14:48:13.631Z,70.80
2018-02-10T14:50:41.061Z,70.40
2018-02-10T14:53:09.252Z,69.50
2018-02-10T14:55:37.448Z,69.50
2018-02-10T14:58:04.920Z,69.50
2018-02-10T15:00:32.404Z,69.70
2018-02-10T15:02:59.880Z,69.80
2018-02-10T15:05:28.128Z,70.30
2018-02-10T15:07:55.574Z,70.20
2018-02-10T15:10:23.008Z,70.50
2018-02-10T15:12:50.431Z,70.50
2018-02-10T15:15:18.628Z,70.40
2018-02-10T15:17:46.872Z,70.30
2018-02-10T15:20:14.316Z,70.20
2018-02-10T15:22:41.719Z,70.20
2018-02-10T15:25:09.157Z,70.40
2018-02-10T15:27:37.380Z,70.70
2018-02-10T15:30:31.540Z,70.70
2018-02-10T15:33:10.894Z,70.80
2018-02-10T15:35:38.312Z,71.30
2018-02-10T15:38:06.530Z,71.60
2018-02-10T15:40:33.956Z,71.50
2018-02-10T15:43:01.397Z,71.60
2018-02-10T15:45:29.584Z,71.50
2018-02-10T15:47:57.781Z,71.10
2018-02-10T15:50:25.251Z,71.10
2018-02-10T15:52:52.680Z,71.00
2018-02-10T15:55:20.174Z,71.10
2018-02-10T15:57:47.615Z,70.90
2018-02-10T16:00:15.277Z,70.70
2018-02-10T16:02:42.746Z,70.80
2018-02-10T16:05:10.197Z,70.90
2018-02-10T16:07:37.664Z,70.90
2018-02-10T16:10:05.092Z,71.20
2018-02-10T16:12:32.548Z,71.50
2018-02-10T16:15:00.044Z,71.70
2018-02-10T16:17:27.460Z,72.10
2018-02-10T16:19:54.998Z,72.30
2018-02-10T16:22:23.197Z,72.90
2018-02-10T16:24:50.627Z,72.90
2018-02-10T16:27:18.852Z,74.20
2018-02-10T16:29:46.271Z,73.40
2018-02-10T16:32:13.772Z,73.70
2018-02-10T16:34:41.212Z,73.90
2018-02-10T16:37:08.644Z,74.00
2018-02-10T16:39:36.852Z,74.40
2018-02-10T16:42:04.514Z,74.40
2018-02-10T16:44:31.936Z,74.50
2018-02-10T16:47:00.164Z,74.80
2018-02-10T16:49:27.599Z,74.70
2018-02-10T16:51:55.024Z,74.80
2018-02-10T16:54:23.252Z,74.90
2018-02-10T16:56:50.788Z,74.90
2018-02-10T16:59:18.252Z,75.00
2018-02-10T17:01:45.684Z,75.00
2018-02-10T17:04:13.136Z,75.20
2018-02-10T17:06:40.614Z,75.30
2018-02-10T17:09:08.024Z,75.50
2018-02-10T17:11:35.547Z,75.60
2018-02-10T17:14:02.972Z,76.40
2018-02-10T17:16:30.399Z,75.90
2018-02-10T17:18:58.623Z,76.20
2018-02-10T17:21:26.084Z,76.20
2018-02-10T17:23:53.519Z,76.30
2018-02-10T17:26:20.997Z,76.40
2018-02-10T17:28:48.408Z,76.30
2018-02-10T17:31:16.660Z,76.40
2018-02-10T17:33:44.208Z,76.40
2018-02-10T17:36:11.640Z,76.50
2018-02-10T17:38:39.101Z,76.60
2018-02-10T17:41:06.561Z,76.60
2018-02-10T17:43:34.003Z,76.40
2018-02-10T17:46:01.421Z,76.20
2018-02-10T17:48:28.940Z,76.00
2018-02-10T17:50:56.371Z,75.90
2018-02-10T17:53:23.843Z,75.80
2018-02-10T17:55:51.289Z,75.60
2018-02-10T17:58:18.756Z,75.60
2018-02-10T18:00:46.192Z,75.50
2018-02-10T18:03:13.700Z,75.40
2018-02-10T18:05:41.244Z,75.20
2018-02-10T18:08:08.667Z,75.20
2018-02-10T18:10:36.102Z,75.10
2018-02-10T18:13:04.316Z,75.00
2018-02-10T18:15:31.747Z,75.00
2018-02-10T18:17:59.951Z,74.70
2018-02-10T18:20:27.430Z,74.70
2018-02-10T18:22:54.907Z,74.70
2018-02-10T18:25:23.116Z,74.70
2018-02-10T18:27:50.608Z,74.70
2018-02-10T18:30:18.037Z,74.70
2018-02-10T18:32:45.476Z,74.50
2018-02-10T18:35:12.999Z,74.40
2018-02-10T18:37:40.424Z,74.20
2018-02-10T18:40:07.870Z,74.30
2018-02-10T18:42:35.296Z,74.30
2018-02-10T18:45:03.513Z,75.10
2018-02-10T18:47:30.932Z,74.40
2018-02-10T18:49:59.124Z,74.30
2018-02-10T18:52:26.563Z,74.30
2018-02-10T18:54:54.764Z,74.20
2018-02-10T18:57:22.197Z,74.10
2018-02-10T18:59:50.441Z,74.00
2018-02-10T19:02:18.888Z,74.00
2018-02-10T19:04:46.352Z,74.50
2018-02-10T19:07:13.780Z,73.60
2018-02-10T19:09:41.229Z,73.60
2018-02-10T19:12:09.432Z,73.60
2018-02-10T19:14:36.911Z,73.60
2018-02-10T19:17:04.340Z,73.70
2018-02-10T19:19:31.768Z,73.70
2018-02-10T19:21:59.956Z,73.50
2018-02-10T19:24:27.435Z,73.50
2018-02-10T19:26:54.915Z,73.60
2018-02-10T19:29:22.360Z,74.20
2018-02-10T19:31:49.788Z,73.50
2018-02-10T19:34:17.220Z,73.50
2018-02-10T19:36:45.420Z,73.50
2018-02-10T19:39:12.868Z,73.50
2018-02-10T19:41:40.296Z,73.50
2018-02-10T19:44:07.719Z,73.40
2018-02-10T19:46:35.200Z,73.30
2018-02-10T19:49:02.640Z,73.40
2018-02-10T19:51:30.094Z,73.50
2018-02-10T19:53:57.529Z,73.50
2018-02-10T19:56:24.956Z,73.70
2018-02-10T19:58:53.148Z,73.90
2018-02-10T20:01:20.587Z,73.80
2018-02-10T20:03:48.776Z,74.00
2018-02-10T20:06:16.200Z,74.00
2018-02-10T20:08:43.637Z,74.00
2018-02-10T20:11:11.071Z,74.00
2018-02-10T20:13:38.504Z,73.90
2018-02-10T20:16:05.980Z,73.90
2018-02-10T20:18:33.440Z,74.00
2018-02-10T20:21:00.904Z,74.10
2018-02-10T20:23:28.682Z,74.20
2018-02-10T20:25:56.144Z,74.30
2018-02-10T20:28:23.580Z,74.50
2018-02-10T20:30:51.026Z,74.50
2018-02-10T20:33:18.488Z,74.60
2018-02-10T20:35:45.896Z,74.60
2018-02-10T20:38:13.332Z,74.70
2018-02-10T20:40:40.760Z,74.80
2018-02-10T20:43:08.198Z,74.80
2018-02-10T20:45:35.648Z,75.60
2018-02-10T20:48:03.083Z,75.00
2018-02-10T20:50:30.504Z,75.10
2018-02-10T20:52:58.048Z,75.70
2018-02-10T20:55:25.504Z,75.20
2018-02-10T20:57:52.949Z,75.30
2018-02-10T21:00:20.401Z,75.40
2018-02-10T21:02:48.658Z,76.10
2018-02-10T21:05:16.096Z,75.60
2018-02-10T21:07:43.529Z,75.50
2018-02-10T21:10:10.966Z,75.60
2018-02-10T21:12:38.496Z,75.60
2018-02-10T21:15:05.938Z,75.70
2018-02-10T21:17:33.376Z,75.90
2018-02-10T21:20:01.620Z,75.80
2018-02-10T21:22:29.057Z,75.90
2018-02-10T21:24:56.493Z,75.90
2018-02-10T21:27:23.915Z,76.00
2018-02-10T21:29:52.140Z,76.10
2018-02-10T21:32:19.644Z,76.10
2018-02-10T21:34:47.815Z,76.30
2018-02-10T21:37:16.116Z,76.50
2018-02-10T21:39:43.539Z,76.50
2018-02-10T21:42:10.960Z,76.50
2018-02-10T21:44:38.521Z,76.60
2018-02-10T21:47:05.969Z,76.60
2018-02-10T21:49:33.553Z,76.60
2018-02-10T21:52:00.988Z,76.60
2018-02-10T21:54:28.434Z,76.80
2018-02-10T21:56:56.093Z,76.90
2018-02-10T21:59:23.564Z,76.80
2018-02-10T22:01:51.033Z,76.80
2018-02-10T22:04:18.479Z,77.10
2018-02-10T22:06:45.917Z,77.10
2018-02-10T22:09:13.347Z,77.30
2018-02-10T22:11:41.558Z,77.60
2018-02-10T22:14:08.981Z,77.60
2018-02-10T22:16:37.168Z,78.00
2018-02-10T22:19:04.645Z,78.00
2018-02-10T22:21:32.829Z,78.50
2018-02-10T22:24:00.294Z,78.30
2018-02-10T22:26:27.716Z,78.60
2018-02-10T22:28:55.210Z,78.70
2018-02-10T22:31:22.632Z,79.00
2018-02-10T22:33:50.060Z,79.20
2018-02-10T22:36:18.259Z,79.80
2018-02-10T22:38:45.687Z,79.80
2018-02-10T22:41:13.653Z,80.20
2018-02-10T22:43:41.173Z,80.20
2018-02-10T22:46:08.676Z,80.60
2018-02-10T22:48:36.872Z,82.00
2018-02-10T22:51:04.368Z,81.30
2018-02-10T22:53:31.793Z,81.50
2018-02-10T22:55:59.373Z,81.80
2018-02-10T22:58:26.852Z,81.90
2018-02-10T23:01:09.164Z,82.20
2018-02-10T23:03:36.708Z,82.50
2018-02-10T23:06:04.159Z,82.80
2018-02-10T23:08:31.598Z,83.10
2018-02-10T23:10:59.027Z,83.40
2018-02-10T23:13:27.225Z,83.90
2018-02-10T23:15:54.827Z,83.90
2018-02-10T23:18:22.376Z,84.20
2018-02-10T23:20:49.820Z,84.40
2018-02-10T23:23:17.248Z,84.70
2018-02-10T23:25:44.683Z,85.00
2018-02-10T23:28:12.909Z,85.60
2018-02-10T23:30:40.371Z,85.50
2018-02-10T23:33:07.820Z,85.70
2018-02-10T23:35:35.239Z,86.10
2018-02-10T23:38:03.460Z,86.60
2018-02-10T23:40:30.918Z,86.60
2018-02-10T23:42:59.139Z,87.90
2018-02-10T23:45:26.697Z,87.10
2018-02-10T23:47:54.164Z,87.40
2018-02-10T23:50:21.642Z,87.70
2018-02-10T23:52:49.180Z,87.70
2018-02-10T23:55:16.639Z,88.30
2018-02-10T23:57:44.097Z,88.50
